Westerville, OH (43082)

7:40 PM EST on March 05, 2015 (GMT -0500)
Annehurst Village | Change Station
CLOSE
Current Station
Personal Weather Station
Location: Westerville, OH
Elevation: 853 ft
Nearby Weather Stations

Elev 853 ft 40.13 °N, 82.95 °W | Updated 33 seconds ago

Mostly Cloudy
Mostly Cloudy
14.9 °F
Feels Like 10 °F
N
3.1
Wind Variable Wind from NE

Today
High -- | Low -- °F
--% Chance of Precip.
Yesterday
High -- | Low -- °F
Precip. -- in
6:59 AM 6:27 PM
Full, 100% visible
Pressure 30.52 in
Visibility 10.0 miles
Clouds Scattered Clouds 3800 ft
Windchill 10 °F
Dew Point 7 °F
Humidity 70%
Rainfall in
Snow Depth Not available.
UV 0 out of 12
Pollen .60 out of 12
Air Quality Not available.
Flu Activity Not available.
METAR KOSU 052353Z 34010KT 10SM SCT038 M09/M17 A3047 RMK AO2 SLP335 T10891172 11067 21089 53033

More Conditions Fewer Conditions

Pressure 30.52 in
Visibility 10.0 miles
Clouds Scattered Clouds 3800 ft
Windchill 10 °F
Dew Point 7 °F
Humidity 70%
Rainfall in
Snow Depth Not available.
UV 0 out of 12
Pollen .60 out of 12
Air Quality Not available.
Flu Activity Not available.
METAR KOSU 052353Z 34010KT 10SM SCT038 M09/M17 A3047 RMK AO2 SLP335 T10891172 11067 21089 53033

More Conditions Fewer Conditions

10-Day Weather Forecast

Almanac

Astronomy

Mar. 05, 2015 Rise Set
Actual Time
Civil Twilight
Nautical Twilight
Astronomical Twilight
Moon
Length of Visible Light
Length of Day
Tomorrow will be .
, % of the Moon is Illuminated

Today's Extremes

State Highs State Lows

Community

WunderPhotos

Upload Photos

1,803,076 photos uploaded!

WunderBlogs® & News

Nearby

Air Quality

  Air Quality AQ Index Pollutant
Not available.

Snow Depth

Station Depth Elevation

Earthquake Activity

City Distance Mag. Time & Date
Minimum magnitude displayed is 2.5.

Coastal Water Temperatures

Place Temperature

Nearby Weather Stations